Time;durP1;ratioP1;P1;durP2;ratioP2;P2;SDS_P1;SDS_P2;PMS_P1;PMS_P2;Temp;Humidity;BMP_temperature;BMP_pressure;BME280_temperature;BME280_humidity;BME280_pressure;Samples;Min_cycle;Max_cycle;Signal;HPM_P1;HPM_P2
2024/02/17 00:00:06;;;;;;;7.73;3.03;;;11.20;99.90;;;;;;4893107;29;36291;-76
2024/02/17 00:02:33;;;;;;;14.90;3.27;;;11.20;99.90;;;;;;4908035;29;37609;-77
2024/02/17 00:04:59;;;;;;;13.63;3.50;;;11.20;99.90;;;;;;4912809;29;38711;-77
2024/02/17 00:07:25;;;;;;;9.47;2.90;;;11.20;99.90;;;;;;4923496;29;37247;-77
2024/02/17 00:09:52;;;;;;;12.90;3.50;;;11.20;99.90;;;;;;4917375;29;39422;-77
2024/02/17 00:12:18;;;;;;;11.57;3.33;;;11.30;99.90;;;;;;4918822;29;39812;-77
2024/02/17 00:14:45;;;;;;;11.97;3.47;;;11.20;99.90;;;;;;4920837;29;39907;-78
2024/02/17 00:17:11;;;;;;;11.07;3.60;;;11.20;99.90;;;;;;4919040;29;36888;-77
2024/02/17 00:19:37;;;;;;;6.32;2.55;;;11.20;99.90;;;;;;4907042;29;35814;-77
2024/02/17 00:22:03;;;;;;;8.67;2.70;;;11.20;99.90;;;;;;4921789;28;38823;-76
2024/02/17 00:24:30;;;;;;;12.73;3.83;;;11.20;99.90;;;;;;4918320;29;38567;-76
2024/02/17 00:26:56;;;;;;;11.73;2.80;;;11.20;99.90;;;;;;4900064;29;38791;-77
2024/02/17 00:29:23;;;;;;;7.32;2.88;;;11.20;99.90;;;;;;4917344;29;37524;-78
2024/02/17 00:31:49;;;;;;;10.23;3.07;;;11.20;99.90;;;;;;4919822;29;39077;-77
2024/02/17 00:34:16;;;;;;;14.35;3.50;;;11.20;99.90;;;;;;4919892;29;39066;-75
2024/02/17 00:36:42;;;;;;;11.33;3.00;;;11.20;99.90;;;;;;4898821;29;39516;-76
2024/02/17 00:39:09;;;;;;;10.87;2.83;;;11.20;99.90;;;;;;4911339;29;37066;-77
2024/02/17 00:41:42;;;;;;;8.43;3.22;;;11.20;99.90;;;;;;4919081;29;39604;-77
2024/02/17 00:44:09;;;;;;;9.32;3.03;;;11.20;99.90;;;;;;4906550;29;38774;-77
2024/02/17 00:46:37;;;;;;;13.73;3.07;;;11.20;99.90;;;;;;4902598;29;37693;-77
2024/02/17 00:49:03;;;;;;;10.05;2.55;;;11.20;99.90;;;;;;4912239;29;37634;-76
2024/02/17 00:51:30;;;;;;;8.93;2.80;;;11.20;99.90;;;;;;4921862;29;37994;-77
2024/02/17 00:53:56;;;;;;;12.07;3.83;;;11.20;99.90;;;;;;4919365;29;39790;-78
2024/02/17 00:56:22;;;;;;;11.90;3.17;;;11.20;99.90;;;;;;4920857;29;38225;-77
2024/02/17 00:58:50;;;;;;;10.37;2.73;;;11.20;99.90;;;;;;4911917;29;37166;-77
2024/02/17 01:01:16;;;;;;;10.40;2.40;;;11.20;99.90;;;;;;4904155;29;38064;-77
2024/02/17 01:03:42;;;;;;;8.67;2.67;;;11.20;99.90;;;;;;4918126;29;37847;-77
2024/02/17 01:06:09;;;;;;;11.30;2.40;;;11.20;99.90;;;;;;4915832;29;37014;-77
2024/02/17 01:08:36;;;;;;;14.20;2.67;;;11.20;99.90;;;;;;4916612;29;37470;-77
2024/02/17 01:11:02;;;;;;;7.90;2.30;;;11.20;99.90;;;;;;4914369;29;39342;-77
2024/02/17 01:13:28;;;;;;;16.10;3.10;;;11.20;99.90;;;;;;4921228;28;39264;-76
2024/02/17 01:15:56;;;;;;;11.77;2.47;;;11.20;99.90;;;;;;4920562;29;37146;-77
2024/02/17 01:18:22;;;;;;;9.87;2.60;;;11.20;99.90;;;;;;4923368;29;36629;-77
2024/02/17 01:20:48;;;;;;;11.13;2.93;;;11.10;99.90;;;;;;4918277;29;38860;-77
2024/02/17 01:23:14;;;;;;;11.50;2.87;;;11.10;99.90;;;;;;4916738;28;38867;-78
2024/02/17 01:25:40;;;;;;;15.47;2.60;;;11.10;99.90;;;;;;4919348;29;39669;-78
2024/02/17 01:28:07;;;;;;;12.73;2.65;;;11.10;99.90;;;;;;4920928;29;36061;-76
2024/02/17 01:30:33;;;;;;;10.80;3.07;;;11.10;99.90;;;;;;4921081;29;38495;-76
2024/02/17 01:32:59;;;;;;;8.90;2.10;;;11.10;99.90;;;;;;4915570;29;39675;-76
2024/02/17 01:35:26;;;;;;;10.77;2.57;;;11.10;99.90;;;;;;4917234;29;38414;-77
2024/02/17 01:37:52;;;;;;;9.47;2.23;;;11.00;99.90;;;;;;4922533;29;40457;-77
2024/02/17 01:40:18;;;;;;;12.60;2.40;;;11.00;99.90;;;;;;4916476;29;38750;-76
2024/02/17 01:42:44;;;;;;;11.73;2.37;;;11.00;99.90;;;;;;4916896;29;40031;-76
2024/02/17 01:45:11;;;;;;;13.13;2.70;;;11.00;99.90;;;;;;4919333;28;37401;-77
2024/02/17 01:47:38;;;;;;;12.70;2.17;;;11.00;99.90;;;;;;4903436;29;38897;-77
2024/02/17 01:50:05;;;;;;;12.07;2.73;;;11.00;99.90;;;;;;4918106;28;38856;-77
2024/02/17 01:52:32;;;;;;;10.50;2.30;;;11.00;99.90;;;;;;4914778;29;39949;-77
2024/02/17 01:55:00;;;;;;;10.33;2.37;;;11.00;99.90;;;;;;4915969;29;38292;-76
2024/02/17 01:57:27;;;;;;;11.00;2.20;;;11.00;99.90;;;;;;4912888;29;37352;-77
2024/02/17 01:59:55;;;;;;;11.97;2.97;;;11.00;99.90;;;;;;4918457;29;39724;-76
2024/02/17 02:05:01;;;;;;;16.73;2.77;;;11.00;99.90;;;;;;3260240;26;20120;-81
2024/02/17 02:07:27;;;;;;;12.77;2.40;;;11.00;99.90;;;;;;4982799;28;37277;-80
2024/02/17 02:09:53;;;;;;;15.10;2.72;;;11.00;99.90;;;;;;4985971;28;41385;-80
2024/02/17 02:12:20;;;;;;;13.20;2.93;;;11.00;99.90;;;;;;4981031;28;37965;-81
2024/02/17 02:15:12;;;;;;;13.40;2.40;;;11.00;99.90;;;;;;4982238;28;37001;-79
2024/02/17 02:17:39;;;;;;;13.20;2.53;;;11.00;99.90;;;;;;4987984;28;48283;-80
2024/02/17 02:20:19;;;;;;;7.57;2.23;;;10.90;99.90;;;;;;4978170;28;38960;-81
2024/02/17 02:22:46;;;;;;;11.20;2.70;;;11.00;99.90;;;;;;4997465;28;39990;-80
2024/02/17 02:25:28;;;;;;;11.43;2.03;;;10.90;99.90;;;;;;4998980;28;39233;-80
2024/02/17 02:27:55;;;;;;;16.33;2.65;;;10.90;99.90;;;;;;4981715;28;36152;-80
2024/02/17 02:30:23;;;;;;;13.43;2.40;;;10.90;99.90;;;;;;4973725;28;38644;-81
2024/02/17 02:32:50;;;;;;;12.23;2.00;;;10.90;99.90;;;;;;4996043;28;40143;-81
2024/02/17 02:35:18;;;;;;;15.80;2.73;;;10.90;99.90;;;;;;4977620;28;38300;-81
2024/02/17 02:38:03;;;;;;;10.07;2.83;;;10.90;99.90;;;;;;4988922;28;38046;-81
2024/02/17 02:40:29;;;;;;;9.37;2.57;;;10.90;99.90;;;;;;4987870;28;48674;-81
2024/02/17 02:43:07;;;;;;;8.90;2.73;;;10.90;99.90;;;;;;4979146;28;38268;-81
2024/02/17 02:45:33;;;;;;;11.63;3.00;;;10.90;99.90;;;;;;4965230;28;48253;-81
2024/02/17 02:47:59;;;;;;;17.30;3.60;;;10.90;99.90;;;;;;4980890;28;37384;-81
2024/02/17 02:50:26;;;;;;;15.60;2.47;;;10.90;99.90;;;;;;4994782;28;39286;-81
2024/02/17 02:52:52;;;;;;;11.07;2.47;;;10.90;99.90;;;;;;4986169;28;38205;-81
2024/02/17 02:55:28;;;;;;;12.63;2.07;;;10.90;99.90;;;;;;4981408;28;38191;-81
2024/02/17 02:57:54;;;;;;;13.03;2.73;;;10.90;99.90;;;;;;4982642;28;37088;-81
2024/02/17 03:00:23;;;;;;;19.90;3.50;;;10.90;99.90;;;;;;4984709;28;38414;-80
2024/02/17 03:02:49;;;;;;;10.40;2.50;;;10.90;99.90;;;;;;4998403;28;49611;-80
2024/02/17 03:05:16;;;;;;;18.40;3.80;;;10.80;99.90;;;;;;4996273;28;37124;-80
2024/02/17 03:07:43;;;;;;;12.63;2.47;;;10.80;99.90;;;;;;4996729;28;37416;-81
2024/02/17 03:10:16;;;;;;;10.10;2.67;;;10.80;99.90;;;;;;4995441;28;39397;-80
2024/02/17 03:12:42;;;;;;;9.83;2.33;;;10.80;99.90;;;;;;4983683;28;38143;-82
2024/02/17 03:15:16;;;;;;;14.10;2.57;;;10.80;99.90;;;;;;4975482;28;37763;-82
2024/02/17 03:17:43;;;;;;;16.63;3.17;;;10.80;99.90;;;;;;4986526;28;37434;-80
2024/02/17 03:20:10;;;;;;;16.97;2.97;;;10.80;99.90;;;;;;4980529;28;38642;-80
2024/02/17 03:22:36;;;;;;;8.30;2.80;;;10.80;99.90;;;;;;4982378;28;37942;-80
2024/02/17 03:25:03;;;;;;;14.30;2.97;;;10.80;99.90;;;;;;4980890;28;37955;-79
2024/02/17 03:27:29;;;;;;;14.23;3.10;;;10.80;99.90;;;;;;4997481;28;37759;-80
2024/02/17 03:29:55;;;;;;;16.07;3.53;;;10.80;99.90;;;;;;4996513;28;40381;-81
2024/02/17 03:32:21;;;;;;;15.30;3.00;;;10.80;99.90;;;;;;4980499;28;38044;-80
2024/02/17 03:34:48;;;;;;;12.13;2.30;;;10.80;99.90;;;;;;4980208;28;37158;-80
2024/02/17 03:37:14;;;;;;;12.40;2.90;;;10.70;99.90;;;;;;4998607;28;38698;-80
2024/02/17 03:39:40;;;;;;;11.30;2.77;;;10.80;99.90;;;;;;4999262;28;40318;-81
2024/02/17 03:42:06;;;;;;;13.07;3.13;;;10.70;99.90;;;;;;4997662;28;40011;-79
2024/02/17 03:44:33;;;;;;;16.73;3.00;;;10.70;99.90;;;;;;4990403;28;39394;-80
2024/02/17 03:46:59;;;;;;;18.83;3.53;;;10.80;99.90;;;;;;4980499;28;38286;-81
2024/02/17 03:49:40;;;;;;;15.90;3.57;;;10.70;99.90;;;;;;4980167;28;39086;-80
2024/02/17 03:52:06;;;;;;;16.37;3.17;;;10.70;99.90;;;;;;4981186;28;38621;-81
2024/02/17 03:54:33;;;;;;;12.30;2.83;;;10.70;99.90;;;;;;4984670;28;38281;-81
2024/02/17 03:56:59;;;;;;;10.87;2.43;;;10.70;99.90;;;;;;4996493;28;38271;-82
2024/02/17 03:59:27;;;;;;;18.20;2.90;;;10.70;99.90;;;;;;4994658;28;39103;-82
2024/02/17 04:01:55;;;;;;;6.57;2.40;;;10.70;99.90;;;;;;4976739;28;37986;-80
2024/02/17 04:04:24;;;;;;;11.97;2.23;;;10.70;99.90;;;;;;4984577;28;41331;-81
2024/02/17 04:06:54;;;;;;;11.57;2.67;;;10.60;99.90;;;;;;4990054;28;38266;-80
2024/02/17 04:09:22;;;;;;;12.43;2.47;;;10.60;99.90;;;;;;4989621;28;39969;-80
2024/02/17 04:11:51;;;;;;;12.00;2.93;;;10.60;99.90;;;;;;4966469;28;38447;-81
2024/02/17 04:14:18;;;;;;;14.17;3.13;;;10.60;99.90;;;;;;4985558;28;38584;-80
2024/02/17 04:17:01;;;;;;;10.97;3.10;;;10.60;99.90;;;;;;4979215;28;37930;-81
2024/02/17 04:19:28;;;;;;;10.03;2.50;;;10.50;99.90;;;;;;4975227;28;47139;-80
2024/02/17 04:21:56;;;;;;;14.77;3.00;;;10.50;99.90;;;;;;4963624;28;37516;-81
2024/02/17 04:24:31;;;;;;;17.13;2.73;;;10.50;99.90;;;;;;4949073;28;38067;-80
2024/02/17 04:26:57;;;;;;;14.20;3.33;;;10.50;99.90;;;;;;4989978;28;37402;-79
2024/02/17 04:29:23;;;;;;;10.10;2.87;;;10.50;99.90;;;;;;4994191;28;38999;-80
2024/02/17 04:31:50;;;;;;;14.60;3.90;;;10.50;99.90;;;;;;4995636;28;39134;-79
2024/02/17 04:34:17;;;;;;;22.77;3.73;;;10.50;99.90;;;;;;4975586;28;39201;-80
2024/02/17 04:36:43;;;;;;;12.63;3.50;;;10.50;99.90;;;;;;4991769;28;38757;-80
2024/02/17 04:39:13;;;;;;;11.70;2.80;;;10.50;99.90;;;;;;4977244;28;40319;-80
2024/02/17 04:41:39;;;;;;;14.97;3.93;;;10.50;99.90;;;;;;4981879;28;37287;-81
2024/02/17 04:44:05;;;;;;;12.93;3.17;;;10.50;99.90;;;;;;4973134;28;37198;-80
2024/02/17 04:46:32;;;;;;;19.30;3.37;;;10.50;99.90;;;;;;4979033;28;37730;-81
2024/02/17 04:48:58;;;;;;;15.00;3.07;;;10.50;99.90;;;;;;4982955;28;37317;-81
2024/02/17 04:51:30;;;;;;;14.97;4.47;;;10.50;99.90;;;;;;4981870;28;38779;-81
2024/02/17 04:53:59;;;;;;;14.20;3.47;;;10.50;99.90;;;;;;4976096;28;38272;-79
2024/02/17 04:56:27;;;;;;;16.70;3.97;;;10.50;99.90;;;;;;4957441;28;35964;-79
2024/02/17 04:58:53;;;;;;;16.83;3.90;;;10.50;99.90;;;;;;4974794;28;39225;-79
2024/02/17 05:01:22;;;;;;;11.43;2.97;;;10.50;99.90;;;;;;4963548;28;39585;-77
2024/02/17 05:03:48;;;;;;;16.07;3.40;;;10.50;99.90;;;;;;4969276;28;38958;-78
2024/02/17 05:06:17;;;;;;;11.23;2.90;;;10.50;99.90;;;;;;4949503;28;38192;-78
2024/02/17 05:08:45;;;;;;;11.87;3.20;;;10.50;99.90;;;;;;4957864;28;39157;-78
2024/02/17 05:11:15;;;;;;;15.30;3.17;;;10.50;99.90;;;;;;4954531;28;38253;-78
2024/02/17 05:13:42;;;;;;;14.87;3.57;;;10.40;99.90;;;;;;4959074;28;37908;-78
2024/02/17 05:16:08;;;;;;;14.47;3.57;;;10.50;99.90;;;;;;4963684;28;36355;-78
2024/02/17 05:18:34;;;;;;;18.87;3.70;;;10.50;99.90;;;;;;4954878;28;37883;-79
2024/02/17 05:21:00;;;;;;;15.43;3.93;;;10.50;99.90;;;;;;4973317;28;39178;-78
2024/02/17 05:23:26;;;;;;;13.47;3.80;;;10.50;99.90;;;;;;4958134;28;37001;-79
2024/02/17 05:26:08;;;;;;;13.63;3.40;;;10.50;99.90;;;;;;5065916;28;20776;-78
2024/02/17 05:28:35;;;;;;;21.13;4.23;;;10.50;99.90;;;;;;5064997;28;37244;-77
2024/02/17 05:31:01;;;;;;;10.90;3.10;;;10.50;99.90;;;;;;5057260;28;35912;-77
2024/02/17 05:33:27;;;;;;;15.00;3.70;;;10.50;99.90;;;;;;5046753;28;46729;-78
2024/02/17 05:35:54;;;;;;;14.10;3.37;;;10.60;99.90;;;;;;5054824;28;38115;-78
2024/02/17 05:38:20;;;;;;;16.07;4.57;;;10.50;99.90;;;;;;5074352;28;38790;-77
2024/02/17 05:40:46;;;;;;;13.17;3.20;;;10.50;99.90;;;;;;5078906;28;37568;-77
2024/02/17 05:43:13;;;;;;;9.03;3.80;;;10.50;99.90;;;;;;5062941;28;37596;-78
2024/02/17 05:45:39;;;;;;;14.03;2.90;;;10.50;99.90;;;;;;5080263;28;37187;-78
2024/02/17 05:48:06;;;;;;;14.53;3.97;;;10.50;99.90;;;;;;5062846;28;37557;-77
2024/02/17 05:50:32;;;;;;;14.63;3.70;;;10.50;99.90;;;;;;5059283;28;37665;-78
2024/02/17 05:52:59;;;;;;;11.70;3.50;;;10.50;99.90;;;;;;5060346;28;39147;-78
2024/02/17 05:55:25;;;;;;;15.20;4.17;;;10.50;99.90;;;;;;5061695;28;36983;-78
2024/02/17 05:57:51;;;;;;;18.80;4.67;;;10.50;99.90;;;;;;5061159;28;39008;-78
2024/02/17 06:00:17;;;;;;;13.67;3.40;;;10.40;99.90;;;;;;5072791;27;38023;-78
2024/02/17 06:02:44;;;;;;;13.43;4.23;;;10.50;99.90;;;;;;5060432;28;39967;-78
2024/02/17 06:05:10;;;;;;;16.03;3.87;;;10.40;99.90;;;;;;5057304;28;38461;-78
2024/02/17 06:07:36;;;;;;;12.67;3.77;;;10.40;99.90;;;;;;5065020;28;37449;-77
2024/02/17 06:10:04;;;;;;;11.40;3.53;;;10.40;99.90;;;;;;5065932;28;38883;-77
2024/02/17 06:12:30;;;;;;;11.67;3.73;;;10.40;99.90;;;;;;5060111;28;47083;-78
2024/02/17 06:14:56;;;;;;;13.33;3.63;;;10.40;99.90;;;;;;5062761;28;38685;-78
2024/02/17 06:17:22;;;;;;;12.23;3.40;;;10.40;99.90;;;;;;5062552;28;36940;-77
2024/02/17 06:22:33;;;;;;;18.10;4.43;;;10.40;99.90;;;;;;5064523;28;48936;-77
2024/02/17 06:25:00;;;;;;;14.50;3.80;;;10.40;99.90;;;;;;5066464;28;37947;-77
2024/02/17 06:27:26;;;;;;;19.47;3.90;;;10.40;99.90;;;;;;5061533;28;37273;-78
2024/02/17 06:29:52;;;;;;;14.17;4.20;;;10.40;99.90;;;;;;5058397;28;35063;-78
2024/02/17 06:32:19;;;;;;;14.10;4.50;;;10.40;99.90;;;;;;5054913;28;37680;-78
2024/02/17 06:34:46;;;;;;;12.83;4.30;;;10.40;99.90;;;;;;5060274;28;38918;-77
2024/02/17 06:37:12;;;;;;;13.50;4.60;;;10.40;99.90;;;;;;5042789;28;37410;-78
2024/02/17 06:39:38;;;;;;;13.80;4.27;;;10.40;99.90;;;;;;5048674;28;38158;-78
2024/02/17 06:42:05;;;;;;;11.80;4.37;;;10.40;99.90;;;;;;5053620;28;39552;-78
2024/02/17 06:44:31;;;;;;;14.57;4.83;;;10.40;99.90;;;;;;5050448;28;37372;-79
2024/02/17 06:46:58;;;;;;;15.83;5.47;;;10.40;99.90;;;;;;5069275;28;38536;-78
2024/02/17 06:49:25;;;;;;;16.10;5.67;;;10.40;99.90;;;;;;5051336;28;37391;-79
2024/02/17 06:51:51;;;;;;;16.53;5.17;;;10.40;99.90;;;;;;5056000;28;38009;-79
2024/02/17 06:54:17;;;;;;;15.53;4.90;;;10.40;99.90;;;;;;5062054;28;39975;-77
2024/02/17 06:56:43;;;;;;;19.20;6.37;;;10.40;99.90;;;;;;5052942;28;38343;-77
2024/02/17 06:59:09;;;;;;;12.00;5.27;;;10.40;99.90;;;;;;5057816;28;38363;-79
2024/02/17 07:01:35;;;;;;;12.60;4.60;;;10.40;99.90;;;;;;5051111;28;38871;-79
2024/02/17 07:04:01;;;;;;;16.77;5.17;;;10.40;99.90;;;;;;5051317;28;38550;-78
2024/02/17 07:06:28;;;;;;;19.50;5.03;;;10.40;99.90;;;;;;5053552;28;39075;-77
2024/02/17 07:08:54;;;;;;;15.63;4.90;;;10.40;99.90;;;;;;5052105;28;38058;-78
2024/02/17 07:11:20;;;;;;;15.90;5.63;;;10.40;99.90;;;;;;5051174;28;40746;-77
2024/02/17 07:13:47;;;;;;;18.73;5.50;;;10.40;99.90;;;;;;5068212;28;38482;-79
2024/02/17 07:16:13;;;;;;;14.73;5.83;;;10.40;99.90;;;;;;5048152;28;39305;-77
2024/02/17 07:18:41;;;;;;;16.17;5.90;;;10.40;99.90;;;;;;5070083;28;37239;-78
2024/02/17 07:21:07;;;;;;;11.37;5.83;;;10.50;99.90;;;;;;5051539;28;38004;-78
2024/02/17 07:23:33;;;;;;;15.63;6.70;;;10.40;99.90;;;;;;5050608;28;39029;-77
2024/02/17 07:26:00;;;;;;;14.40;6.67;;;10.40;99.90;;;;;;5054728;28;37722;-78
2024/02/17 07:28:26;;;;;;;12.90;7.00;;;10.40;99.90;;;;;;5051713;28;38644;-78
2024/02/17 07:30:53;;;;;;;18.43;7.47;;;10.50;99.90;;;;;;5052046;28;37730;-77
2024/02/17 07:33:19;;;;;;;23.13;8.23;;;10.50;99.90;;;;;;5051474;28;39036;-79
2024/02/17 07:35:48;;;;;;;15.93;7.23;;;10.50;99.90;;;;;;5071566;28;37906;-78
2024/02/17 07:38:15;;;;;;;14.50;6.73;;;10.50;99.90;;;;;;5070297;28;37356;-78
2024/02/17 07:40:41;;;;;;;16.57;7.83;;;10.50;99.90;;;;;;5073363;28;38070;-78
2024/02/17 07:43:07;;;;;;;15.97;8.20;;;10.50;99.90;;;;;;5049886;28;38256;-78
2024/02/17 07:45:34;;;;;;;17.00;8.27;;;10.50;99.90;;;;;;5068934;28;37356;-78
2024/02/17 07:48:00;;;;;;;16.17;7.20;;;10.60;99.90;;;;;;5050210;28;36319;-78
2024/02/17 07:50:26;;;;;;;13.33;7.00;;;10.50;99.90;;;;;;5065105;28;38902;-78
2024/02/17 07:52:53;;;;;;;15.27;7.37;;;10.60;99.90;;;;;;5064646;28;37265;-78
2024/02/17 07:55:20;;;;;;;16.43;7.10;;;10.50;99.90;;;;;;5075568;28;37549;-78
2024/02/17 07:57:46;;;;;;;10.83;6.90;;;10.50;99.90;;;;;;5050334;28;38279;-79
2024/02/17 08:00:13;;;;;;;11.57;6.77;;;10.50;99.90;;;;;;5070641;28;38763;-78
2024/02/17 08:02:39;;;;;;;11.53;5.80;;;10.60;99.90;;;;;;5050704;28;39461;-77
2024/02/17 08:05:07;;;;;;;15.73;6.20;;;10.60;99.90;;;;;;5072519;28;38945;-78
2024/02/17 08:07:35;;;;;;;19.13;7.20;;;10.60;99.90;;;;;;5075253;28;47870;-78
2024/02/17 08:10:02;;;;;;;14.07;5.77;;;10.60;99.90;;;;;;5075706;28;39530;-78
2024/02/17 08:12:28;;;;;;;13.90;5.97;;;10.70;99.90;;;;;;5052444;28;39010;-78
2024/02/17 08:14:54;;;;;;;20.33;6.00;;;10.70;99.90;;;;;;5069071;28;37413;-78
2024/02/17 08:17:20;;;;;;;15.70;5.63;;;10.70;99.90;;;;;;5051429;28;38454;-78
2024/02/17 08:19:46;;;;;;;16.60;6.23;;;10.70;99.90;;;;;;5050760;28;40219;-78
2024/02/17 08:22:15;;;;;;;13.38;5.85;;;10.70;99.90;;;;;;5069912;28;38604;-78
2024/02/17 08:24:41;;;;;;;9.97;4.77;;;10.80;99.90;;;;;;5069694;28;36583;-78
2024/02/17 08:27:07;;;;;;;13.97;4.50;;;10.80;99.90;;;;;;5069040;28;37129;-78
2024/02/17 08:29:35;;;;;;;11.45;4.50;;;10.80;99.90;;;;;;5059424;28;37731;-78
2024/02/17 08:32:01;;;;;;;14.60;4.87;;;10.80;99.90;;;;;;5067406;28;36473;-78
2024/02/17 08:34:27;;;;;;;13.35;4.65;;;10.80;99.90;;;;;;5069438;28;48963;-77
2024/02/17 08:36:53;;;;;;;9.27;3.93;;;10.80;99.90;;;;;;5051229;28;38416;-78
2024/02/17 08:39:19;;;;;;;11.88;4.22;;;10.90;99.90;;;;;;5049281;28;39541;-77
2024/02/17 08:41:45;;;;;;;10.25;4.10;;;11.00;99.90;;;;;;5075835;28;38631;-77
2024/02/17 08:44:11;;;;;;;9.32;3.65;;;11.00;99.90;;;;;;5063745;28;37940;-78
2024/02/17 08:46:38;;;;;;;11.63;3.93;;;11.00;99.90;;;;;;5051150;28;35828;-78
2024/02/17 08:49:04;;;;;;;11.33;4.33;;;11.00;99.90;;;;;;5071731;28;38347;-78
2024/02/17 08:51:30;;;;;;;7.80;3.37;;;11.00;99.90;;;;;;5064088;28;38092;-78
2024/02/17 08:53:57;;;;;;;10.27;3.90;;;11.00;99.90;;;;;;5063417;28;37382;-79
2024/02/17 08:56:24;;;;;;;7.03;3.35;;;11.10;99.90;;;;;;5061986;28;36693;-80
2024/02/17 08:58:50;;;;;;;12.48;3.50;;;11.20;99.90;;;;;;5067927;28;39931;-79
2024/02/17 09:01:17;;;;;;;9.48;3.47;;;11.20;99.90;;;;;;5059232;28;38342;-79
2024/02/17 09:03:44;;;;;;;10.70;3.40;;;11.30;99.90;;;;;;5050399;28;38538;-80
2024/02/17 09:06:10;;;;;;;7.40;3.45;;;11.30;99.90;;;;;;5047829;28;38408;-79
2024/02/17 09:08:37;;;;;;;9.68;3.47;;;11.30;99.90;;;;;;5064891;28;38901;-78
2024/02/17 09:11:03;;;;;;;12.48;3.97;;;11.30;99.90;;;;;;5067311;28;38610;-78
2024/02/17 09:13:30;;;;;;;10.25;5.00;;;11.30;99.90;;;;;;5050525;28;38731;-77
2024/02/17 09:15:56;;;;;;;9.23;3.60;;;11.50;99.90;;;;;;5051943;28;35979;-77
2024/02/17 09:18:25;;;;;;;9.43;3.20;;;11.40;99.90;;;;;;5044041;28;38053;-78
2024/02/17 09:20:51;;;;;;;9.65;3.35;;;11.40;99.90;;;;;;5064841;28;39327;-78
2024/02/17 09:23:17;;;;;;;9.77;3.70;;;11.40;99.90;;;;;;5066161;28;37497;-79
2024/02/17 09:25:43;;;;;;;13.48;3.60;;;11.50;99.90;;;;;;5064535;28;36383;-78
2024/02/17 09:28:09;;;;;;;8.02;3.22;;;11.50;99.90;;;;;;5045250;28;39818;-78
2024/02/17 09:30:35;;;;;;;10.85;3.42;;;11.60;99.90;;;;;;5047925;28;38437;-78
2024/02/17 09:33:02;;;;;;;14.18;4.28;;;11.80;99.90;;;;;;5051098;28;38135;-79
2024/02/17 09:35:29;;;;;;;8.15;2.90;;;11.80;99.90;;;;;;5061779;28;38168;-78
2024/02/17 09:37:55;;;;;;;7.80;3.25;;;11.80;99.90;;;;;;5060850;28;39579;-78
2024/02/17 09:40:21;;;;;;;7.25;3.15;;;11.80;99.90;;;;;;5060328;28;38509;-82
2024/02/17 09:42:47;;;;;;;8.93;3.30;;;11.90;99.90;;;;;;5063123;28;39306;-78
2024/02/17 09:45:15;;;;;;;8.73;3.05;;;11.90;99.90;;;;;;5044974;28;37484;-77
2024/02/17 09:47:44;;;;;;;12.07;3.47;;;11.90;99.90;;;;;;5065176;28;38847;-76
2024/02/17 09:50:11;;;;;;;9.32;3.13;;;12.00;99.90;;;;;;5046062;28;37562;-77
2024/02/17 09:52:38;;;;;;;9.98;3.03;;;12.00;99.90;;;;;;5063860;28;37756;-77
2024/02/17 09:55:05;;;;;;;9.63;2.60;;;12.10;99.90;;;;;;5047929;28;38844;-76
2024/02/17 09:57:31;;;;;;;7.82;2.90;;;12.10;99.90;;;;;;5057066;28;47193;-76
2024/02/17 09:59:57;;;;;;;13.13;2.80;;;12.10;99.90;;;;;;5061355;28;39149;-76
2024/02/17 10:02:23;;;;;;;6.25;2.50;;;12.20;99.90;;;;;;5039684;28;37038;-76
2024/02/17 10:04:57;;;;;;;8.38;2.72;;;12.20;99.90;;;;;;5044659;28;36622;-76
2024/02/17 10:07:23;;;;;;;6.28;2.78;;;12.20;99.90;;;;;;5035735;28;38179;-77
2024/02/17 10:09:50;;;;;;;10.15;3.22;;;12.20;99.90;;;;;;5045512;28;39307;-82
2024/02/17 10:12:19;;;;;;;8.38;2.72;;;12.20;99.90;;;;;;5051588;28;38642;-81
2024/02/17 10:14:51;;;;;;;8.35;2.67;;;12.40;99.90;;;;;;5045940;28;38146;-81
2024/02/17 10:17:20;;;;;;;7.18;3.35;;;12.40;99.90;;;;;;5032596;28;40142;-80
2024/02/17 10:19:46;;;;;;;8.00;2.92;;;12.40;99.90;;;;;;5048972;28;38392;-81
2024/02/17 10:22:13;;;;;;;6.93;3.05;;;12.60;99.90;;;;;;5051397;28;38027;-81
2024/02/17 10:24:39;;;;;;;5.55;2.55;;;12.70;99.90;;;;;;5062935;28;37785;-88
2024/02/17 10:27:06;;;;;;;14.80;4.03;;;12.60;99.90;;;;;;5067975;28;38986;-92
2024/02/17 10:29:32;;;;;;;9.05;3.65;;;12.70;99.90;;;;;;5066075;28;38420;-88
2024/02/17 10:31:59;;;;;;;7.88;3.58;;;12.60;99.90;;;;;;5054411;28;38272;-90
2024/02/17 10:34:25;;;;;;;12.82;4.80;;;12.60;99.90;;;;;;5048517;28;36423;-89
2024/02/17 10:36:52;;;;;;;7.15;3.30;;;12.70;99.90;;;;;;5050374;28;40061;-90
2024/02/17 10:39:20;;;;;;;7.75;3.17;;;12.70;99.90;;;;;;5057820;28;38645;-89
2024/02/17 10:41:47;;;;;;;10.60;3.88;;;12.80;99.90;;;;;;5053918;28;36912;-90
2024/02/17 10:44:14;;;;;;;5.90;3.00;;;12.90;99.90;;;;;;5050558;28;37522;-89
2024/02/17 10:46:45;;;;;;;8.93;2.72;;;12.90;99.90;;;;;;5052639;28;39684;-90
2024/02/17 10:49:29;;;;;;;9.18;2.78;;;12.90;99.90;;;;;;5055993;28;37502;-91
2024/02/17 10:52:04;;;;;;;6.97;3.10;;;13.20;99.90;;;;;;5061514;28;39538;-90
2024/02/17 10:54:34;;;;;;;11.25;3.80;;;13.40;99.90;;;;;;5034209;28;48845;-91
2024/02/17 10:57:04;;;;;;;5.95;2.80;;;13.40;91.60;;;;;;5060362;28;38702;-89
2024/02/17 10:59:32;;;;;;;8.07;3.17;;;13.40;85.60;;;;;;5050515;28;47438;-88
2024/02/17 11:02:00;;;;;;;5.90;2.85;;;13.40;92.10;;;;;;5050364;28;36665;-88
2024/02/17 11:04:27;;;;;;;8.25;3.35;;;13.60;93.40;;;;;;5058695;28;36077;-89
2024/02/17 11:06:54;;;;;;;8.55;3.95;;;13.60;68.40;;;;;;5058966;28;38645;-89
2024/02/17 11:09:20;;;;;;;4.82;2.80;;;13.80;87.50;;;;;;5058611;28;37867;-88
2024/02/17 11:11:47;;;;;;;5.68;2.58;;;13.90;55.00;;;;;;5059352;28;36474;-91
2024/02/17 11:14:48;;;;;;;8.93;3.33;;;13.70;36.70;;;;;;5062999;28;37445;-89
2024/02/17 11:17:15;;;;;;;6.05;3.17;;;13.70;45.50;;;;;;5032208;28;38818;-89
2024/02/17 11:19:46;;;;;;;12.13;3.78;;;13.60;45.10;;;;;;5047558;28;38214;-91
2024/02/17 11:22:16;;;;;;;10.70;3.50;;;13.70;37.30;;;;;;5052281;28;37791;-90
2024/02/17 11:24:44;;;;;;;7.22;3.65;;;13.80;50.70;;;;;;5057087;28;36659;-91
2024/02/17 11:27:10;;;;;;;5.88;3.00;;;13.80;37.80;;;;;;5047328;28;39990;-90
2024/02/17 11:29:38;;;;;;;5.80;3.15;;;13.90;35.80;;;;;;5064660;28;39357;-89
2024/02/17 11:32:05;;;;;;;11.82;3.83;;;13.80;35.00;;;;;;5057711;28;37665;-89
2024/02/17 11:34:31;;;;;;;5.85;3.13;;;13.90;46.20;;;;;;5051106;28;37533;-89
2024/02/17 11:36:58;;;;;;;7.30;3.70;;;13.90;29.40;;;;;;5054616;28;39394;-88
2024/02/17 11:39:31;;;;;;;8.98;3.97;;;13.90;36.00;;;;;;5058437;28;37789;-90
2024/02/17 11:42:00;;;;;;;6.38;3.38;;;13.90;36.20;;;;;;5055250;28;37974;-90
2024/02/17 11:44:27;;;;;;;7.47;2.97;;;14.00;26.40;;;;;;5048781;28;38373;-89
2024/02/17 11:46:53;;;;;;;5.68;3.67;;;14.10;32.70;;;;;;5057641;28;39615;-91
2024/02/17 11:49:27;;;;;;;6.65;3.88;;;14.20;30.00;;;;;;5055222;28;39610;-88
2024/02/17 11:52:12;;;;;;;8.70;3.97;;;14.20;32.30;;;;;;5061251;28;38418;-90
2024/02/17 11:54:39;;;;;;;7.38;3.67;;;14.40;20.00;;;;;;5094265;28;36143;-90
2024/02/17 11:57:06;;;;;;;7.25;3.22;;;14.40;19.30;;;;;;5083851;28;38202;-91
2024/02/17 11:59:35;;;;;;;5.40;3.10;;;14.40;13.20;;;;;;5083881;28;38636;-92
2024/02/17 12:02:03;;;;;;;8.48;3.13;;;14.40;10.30;;;;;;5052375;28;38954;-92
2024/02/17 12:04:29;;;;;;;6.22;3.65;;;14.50;7.70;;;;;;5056311;28;49166;-94
2024/02/17 12:06:55;;;;;;;5.07;3.00;;;14.50;8.60;;;;;;5057681;28;38456;-92
2024/02/17 12:09:22;;;;;;;7.55;2.65;;;14.30;8.70;;;;;;5055124;28;38650;-93
2024/02/17 12:11:48;;;;;;;6.03;2.40;;;14.10;1.40;;;;;;5055004;28;38472;-94
2024/02/17 12:14:16;;;;;;;3.88;2.60;;;14.00;9.10;;;;;;5064043;28;37087;-83
2024/02/17 12:16:43;;;;;;;9.52;3.08;;;13.80;5.80;;;;;;5050397;28;37713;-93
2024/02/17 12:19:11;;;;;;;7.60;2.83;;;13.80;15.30;;;;;;5061924;28;37387;-93
2024/02/17 12:21:39;;;;;;;6.63;2.95;;;13.90;21.00;;;;;;5052628;28;36502;-94
2024/02/17 12:24:06;;;;;;;10.10;3.30;;;13.80;13.30;;;;;;5052189;28;35911;-92
2024/02/17 12:26:34;;;;;;;8.77;3.33;;;13.70;19.20;;;;;;5053212;28;38682;-92
2024/02/17 12:29:04;;;;;;;12.30;3.85;;;13.70;21.00;;;;;;5058429;28;38398;-93
2024/02/17 12:31:31;;;;;;;8.75;3.03;;;13.60;14.70;;;;;;5052106;28;47844;-92
2024/02/17 12:33:58;;;;;;;8.32;3.00;;;13.60;28.10;;;;;;5053120;28;36955;-91
2024/02/17 12:36:24;;;;;;;9.05;3.10;;;13.50;15.80;;;;;;5049183;28;38850;-93
2024/02/17 12:38:58;;;;;;;10.23;3.00;;;13.40;17.90;;;;;;5055809;28;38570;-91
2024/02/17 12:41:28;;;;;;;8.20;2.95;;;13.40;20.50;;;;;;5067676;28;36442;-92
2024/02/17 12:43:55;;;;;;;5.25;2.28;;;13.50;23.50;;;;;;5074576;28;37969;-89
2024/02/17 12:46:22;;;;;;;6.50;2.53;;;13.50;18.00;;;;;;5057218;28;37894;-89